Time;durP1;ratioP1;P1;durP2;ratioP2;P2;SDS_P1;SDS_P2;PMS_P1;PMS_P2;Temp;Humidity;BMP_temperature;BMP_pressure;BME280_temperature;BME280_humidity;BME280_pressure;Samples;Min_cycle;Max_cycle;Signal;HPM_P1;HPM_P2
2023/02/21 02:14:51;;;;;;;;;;;;;;;19.59;38.25;100627.84;106184;1282;76295;-81
2023/02/21 02:17:35;;;;;;;;;;;;;;;19.59;38.33;100616.23;106276;1282;60720;-81
2023/02/21 02:20:20;;;;;;;;;;;;;;;19.59;38.16;100612.66;106276;1282;62009;-81
2023/02/21 02:22:45;;;;;;;;;;;;;;;19.59;38.30;100601.77;106240;1282;72438;-81
2023/02/21 02:25:17;;;;;;;;;;;;;;;19.59;38.25;100604.46;106273;1282;62146;-81
2023/02/21 02:27:45;;;;;;;;;;;;;;;19.59;38.34;100605.52;106393;1282;62152;-81
2023/02/21 02:30:29;;;;;;;;;;;;;;;19.59;38.24;100596.25;106184;1282;60107;-81
2023/02/21 02:32:58;;;;;;;;;;;;;;;19.59;38.27;100597.15;106179;1282;73685;-80
2023/02/21 02:35:24;;;;;;;;;;;;;;;19.59;38.38;100599.30;106275;1282;76409;-80
2023/02/21 02:38:14;;;;;;;;;;;;;;;19.59;38.52;100592.33;106269;1282;61958;-80
2023/02/21 02:40:58;;;;;;;;;;;;;;;19.59;38.43;100614.46;105307;1290;62024;-81
2023/02/21 02:43:31;;;;;;;;;;;;;;;19.59;38.36;100591.05;105395;1290;73039;-81
2023/02/21 02:46:14;;;;;;;;;;;;;;;19.58;38.37;100593.08;105403;1291;75314;-81
2023/02/21 02:48:42;;;;;;;;;;;;;;;19.59;38.37;100598.05;105298;1291;62069;-81
2023/02/21 02:51:10;;;;;;;;;;;;;;;19.59;38.38;100592.33;105309;1291;60701;-81
2023/02/21 02:53:36;;;;;;;;;;;;;;;19.59;38.44;100594.47;105379;1291;72506;-81
2023/02/21 02:56:05;;;;;;;;;;;;;;;19.59;38.40;100598.91;105410;1289;62089;-81
2023/02/21 02:58:42;;;;;;;;;;;;;;;19.59;38.27;100580.55;105393;1293;61938;-81
2023/02/21 03:01:18;;;;;;;;;;;;;;;19.59;38.34;100576.27;105359;1289;62081;-81
2023/02/21 03:03:44;;;;;;;;;;;;;;;19.59;38.32;100572.01;105398;1291;72662;-81
2023/02/21 03:06:21;;;;;;;;;;;;;;;19.59;38.41;100578.95;105423;1289;62188;-81
2023/02/21 03:09:01;;;;;;;;;;;;;;;19.59;38.45;100568.92;105353;1290;61878;-81
2023/02/21 03:11:27;;;;;;;;;;;;;;;19.59;38.49;100558.59;105395;1291;62095;-81
2023/02/21 03:13:57;;;;;;;;;;;;;;;19.59;38.48;100561.78;105373;1291;62057;-81
2023/02/21 03:16:23;;;;;;;;;;;;;;;19.59;38.35;100558.40;105456;1289;76159;-81
2023/02/21 03:18:53;;;;;;;;;;;;;;;19.59;38.36;100555.89;106060;1281;62277;-81
2023/02/21 03:21:28;;;;;;;;;;;;;;;19.59;38.38;100557.30;106307;1282;61939;-81
2023/02/21 03:23:55;;;;;;;;;;;;;;;19.59;38.35;100548.74;106253;1283;72362;-81
2023/02/21 03:26:21;;;;;;;;;;;;;;;19.60;38.43;100547.64;106166;1282;76193;-81
2023/02/21 03:28:46;;;;;;;;;;;;;;;19.59;38.38;100553.02;106152;1282;62144;-81
2023/02/21 03:31:12;;;;;;;;;;;;;;;19.59;38.31;100549.98;106193;1282;60933;-81
2023/02/21 03:33:40;;;;;;;;;;;;;;;19.59;38.43;100538.73;106240;1287;62136;-81
2023/02/21 03:36:05;;;;;;;;;;;;;;;19.59;38.48;100536.77;106180;1282;62036;-81
2023/02/21 03:38:31;;;;;;;;;;;;;;;19.59;38.23;100539.09;106175;1282;62140;-81
2023/02/21 03:40:57;;;;;;;;;;;;;;;19.59;38.23;100544.80;106186;1282;62042;-81
2023/02/21 03:43:22;;;;;;;;;;;;;;;19.59;38.27;100541.42;106226;1282;62148;-81
2023/02/21 03:45:48;;;;;;;;;;;;;;;19.60;38.42;100536.40;106276;1282;73427;-81
2023/02/21 03:48:13;;;;;;;;;;;;;;;19.59;38.22;100534.79;106187;1282;62175;-81
2023/02/21 03:50:39;;;;;;;;;;;;;;;19.59;38.32;100535.34;106303;1282;62136;-81
2023/02/21 03:53:04;;;;;;;;;;;;;;;19.59;38.41;100533.20;106321;1281;62185;-81
2023/02/21 03:55:30;;;;;;;;;;;;;;;19.59;38.34;100538.23;106234;1283;62070;-81
2023/02/21 03:57:55;;;;;;;;;;;;;;;19.59;38.36;100539.27;106187;1282;62616;-81
2023/02/21 04:00:21;;;;;;;;;;;;;;;19.59;38.30;100534.83;106224;1281;62095;-81
2023/02/21 04:02:46;;;;;;;;;;;;;;;19.59;38.34;100545.70;106374;1282;62121;-81
2023/02/21 04:05:12;;;;;;;;;;;;;;;19.59;38.37;100544.64;106386;1282;62056;-81
2023/02/21 04:07:37;;;;;;;;;;;;;;;19.59;38.33;100541.77;106222;1282;62085;-81
2023/02/21 04:10:03;;;;;;;;;;;;;;;19.60;38.28;100544.98;106261;1283;73810;-81
2023/02/21 04:12:28;;;;;;;;;;;;;;;19.60;38.32;100549.42;106196;1283;62082;-81
2023/02/21 04:14:55;;;;;;;;;;;;;;;19.60;38.28;100545.67;106153;1281;62602;-81
2023/02/21 04:17:21;;;;;;;;;;;;;;;19.60;38.20;100547.09;106167;1282;62165;-81
2023/02/21 04:19:46;;;;;;;;;;;;;;;19.60;38.13;100555.49;106158;1283;62066;-81
2023/02/21 04:22:12;;;;;;;;;;;;;;;19.60;38.35;100546.91;106262;1282;62079;-81
2023/02/21 04:24:37;;;;;;;;;;;;;;;19.60;38.37;100540.13;106337;1285;62076;-81
2023/02/21 04:27:03;;;;;;;;;;;;;;;19.60;38.16;100543.17;106183;1282;62164;-80
2023/02/21 04:29:28;;;;;;;;;;;;;;;19.60;38.27;100541.56;106186;1282;62223;-80
2023/02/21 04:31:54;;;;;;;;;;;;;;;19.60;38.19;100537.48;106247;1282;62082;-80
2023/02/21 04:34:20;;;;;;;;;;;;;;;19.60;38.21;100535.86;106169;1282;62185;-80
2023/02/21 04:36:45;;;;;;;;;;;;;;;19.59;38.39;100533.04;106195;1281;60969;-80
2023/02/21 04:39:12;;;;;;;;;;;;;;;19.60;38.37;100534.63;106189;1282;61963;-80
2023/02/21 04:41:37;;;;;;;;;;;;;;;19.59;38.23;100532.69;106202;1282;61168;-80
2023/02/21 04:44:03;;;;;;;;;;;;;;;19.59;38.23;100541.59;106261;1282;62021;-80
2023/02/21 04:46:28;;;;;;;;;;;;;;;19.59;38.15;100541.05;105934;1282;62184;-80
2023/02/21 04:48:56;;;;;;;;;;;;;;;19.59;38.22;100533.04;106202;1282;62315;-80
2023/02/21 04:51:22;;;;;;;;;;;;;;;19.59;38.30;100534.98;106253;1282;61796;-80
2023/02/21 04:53:48;;;;;;;;;;;;;;;19.59;38.24;100535.71;106173;1282;62177;-80
2023/02/21 04:56:13;;;;;;;;;;;;;;;19.59;38.36;100527.31;106202;1283;62142;-80
2023/02/21 04:58:38;;;;;;;;;;;;;;;19.59;38.26;100525.51;106238;1282;62407;-80
2023/02/21 05:01:04;;;;;;;;;;;;;;;19.59;38.26;100529.82;106229;1282;62183;-80
2023/02/21 05:03:30;;;;;;;;;;;;;;;19.60;38.17;100532.65;106198;1282;61870;-80
2023/02/21 05:05:55;;;;;;;;;;;;;;;19.60;38.27;100531.91;106212;1282;62069;-80
2023/02/21 05:08:22;;;;;;;;;;;;;;;19.60;38.17;100529.98;106203;1282;62210;-80
2023/02/21 05:10:47;;;;;;;;;;;;;;;19.60;38.10;100532.79;106169;1282;62140;-81
2023/02/21 05:13:13;;;;;;;;;;;;;;;19.60;38.23;100533.13;106313;1282;60884;-81
2023/02/21 05:15:38;;;;;;;;;;;;;;;19.61;38.26;100534.18;106209;1282;62165;-81
2023/02/21 05:18:04;;;;;;;;;;;;;;;19.62;38.18;100535.77;106229;1282;62063;-82
2023/02/21 05:20:29;;;;;;;;;;;;;;;19.61;38.20;100522.58;106218;1282;62249;-82
2023/02/21 05:22:55;;;;;;;;;;;;;;;19.62;38.36;100528.79;106165;1283;62171;-82
2023/02/21 05:25:21;;;;;;;;;;;;;;;19.62;38.24;100527.66;106214;1282;62098;-82
2023/02/21 05:27:47;;;;;;;;;;;;;;;19.62;38.34;100532.31;106184;1283;62053;-81
2023/02/21 05:30:13;;;;;;;;;;;;;;;19.62;38.33;100537.46;106244;1282;60073;-81
2023/02/21 05:32:39;;;;;;;;;;;;;;;19.63;38.40;100530.64;106192;1282;72502;-82
2023/02/21 05:35:05;;;;;;;;;;;;;;;19.63;38.16;100529.73;106199;1283;62252;-82
2023/02/21 05:37:31;;;;;;;;;;;;;;;19.63;38.31;100539.21;106195;1282;62043;-82
2023/02/21 05:39:56;;;;;;;;;;;;;;;19.64;38.24;100536.14;106194;1282;62092;-82
2023/02/21 05:42:21;;;;;;;;;;;;;;;19.64;38.38;100534.17;106351;1282;62065;-82
2023/02/21 05:44:47;;;;;;;;;;;;;;;19.64;38.30;100537.71;106166;1282;72606;-82
2023/02/21 05:47:13;;;;;;;;;;;;;;;19.64;38.28;100538.81;106203;1282;62081;-82
2023/02/21 05:49:38;;;;;;;;;;;;;;;19.64;38.19;100539.84;106206;1282;61900;-82
2023/02/21 05:52:04;;;;;;;;;;;;;;;19.65;38.25;100538.39;106384;1282;62161;-82
2023/02/21 05:54:31;;;;;;;;;;;;;;;19.65;38.27;100548.16;106192;1285;60975;-81
2023/02/21 05:56:57;;;;;;;;;;;;;;;19.66;38.27;100557.95;106298;1282;62065;-81
2023/02/21 05:59:22;;;;;;;;;;;;;;;19.65;38.19;100552.10;106314;1282;62124;-81
2023/02/21 06:01:48;;;;;;;;;;;;;;;19.66;38.30;100549.55;106256;1283;62165;-82
2023/02/21 06:04:14;;;;;;;;;;;;;;;19.66;38.15;100547.95;106208;1282;62143;-82
2023/02/21 06:06:40;;;;;;;;;;;;;;;19.66;38.15;100549.19;106209;1283;62177;-82
2023/02/21 06:09:06;;;;;;;;;;;;;;;19.66;38.26;100548.66;106085;1282;62037;-82
2023/02/21 06:11:32;;;;;;;;;;;;;;;19.66;38.21;100545.78;106231;1282;60859;-82
2023/02/21 06:13:58;;;;;;;;;;;;;;;19.66;38.17;100548.77;106235;1282;61961;-82
2023/02/21 06:16:24;;;;;;;;;;;;;;;19.67;38.23;100544.66;106199;1282;62038;-82
2023/02/21 06:18:50;;;;;;;;;;;;;;;19.67;38.26;100548.75;106365;1282;62079;-82
2023/02/21 06:21:16;;;;;;;;;;;;;;;19.68;38.37;100547.65;106314;1282;75255;-82
2023/02/21 06:23:42;;;;;;;;;;;;;;;19.68;38.20;100546.00;106394;1282;62127;-82
2023/02/21 06:26:07;;;;;;;;;;;;;;;19.68;38.19;100548.30;106276;1282;62168;-82
2023/02/21 06:28:33;;;;;;;;;;;;;;;19.69;38.23;100553.82;106304;1285;62090;-82
2023/02/21 06:30:58;;;;;;;;;;;;;;;19.70;38.34;100550.89;106248;1287;62038;-82
2023/02/21 06:33:24;;;;;;;;;;;;;;;19.70;38.20;100552.66;106205;1287;73590;-82
2023/02/21 06:35:50;;;;;;;;;;;;;;;19.71;38.27;100552.09;106226;1282;62044;-82
2023/02/21 06:38:15;;;;;;;;;;;;;;;19.71;38.19;100549.75;106299;1283;62081;-81
2023/02/21 06:40:41;;;;;;;;;;;;;;;19.71;38.35;100545.48;106196;1283;62069;-82
2023/02/21 06:43:06;;;;;;;;;;;;;;;19.71;38.12;100545.46;106198;1283;62111;-82
2023/02/21 06:45:32;;;;;;;;;;;;;;;19.71;38.36;100539.04;106016;1282;75364;-82
2023/02/21 06:47:57;;;;;;;;;;;;;;;19.71;38.23;100540.44;106150;1282;62141;-82
2023/02/21 06:50:23;;;;;;;;;;;;;;;19.71;38.27;100545.45;106197;1282;62030;-82
2023/02/21 06:52:48;;;;;;;;;;;;;;;19.71;38.14;100536.86;106020;1282;62174;-81
2023/02/21 06:55:18;;;;;;;;;;;;;;;19.71;38.21;100529.70;106221;1282;62113;-82
2023/02/21 06:57:44;;;;;;;;;;;;;;;19.71;38.20;100527.41;106155;1283;76251;-82
2023/02/21 07:00:10;;;;;;;;;;;;;;;19.71;38.34;100526.31;106273;1282;62010;-82
2023/02/21 07:02:37;;;;;;;;;;;;;;;19.71;38.28;100523.66;105500;1283;934978;-82
2023/02/21 07:05:03;;;;;;;;;;;;;;;19.72;38.28;100522.20;106342;1283;62081;-80
2023/02/21 07:07:28;;;;;;;;;;;;;;;19.72;38.26;100515.95;106166;1282;63070;-80
2023/02/21 07:09:54;;;;;;;;;;;;;;;19.72;38.29;100513.95;106278;1282;62269;-80
2023/02/21 07:12:19;;;;;;;;;;;;;;;19.72;38.26;100507.16;106207;1282;62041;-80
2023/02/21 07:14:45;;;;;;;;;;;;;;;19.72;38.35;100515.56;106303;1285;62068;-80
2023/02/21 07:17:11;;;;;;;;;;;;;;;19.72;38.21;100510.88;106029;1283;62026;-80
2023/02/21 07:19:36;;;;;;;;;;;;;;;19.72;38.32;100505.20;106217;1282;62207;-80
2023/02/21 07:22:02;;;;;;;;;;;;;;;19.73;38.24;100505.33;106214;1282;62050;-80
2023/02/21 07:24:27;;;;;;;;;;;;;;;19.73;38.27;100500.48;106220;1282;62066;-80
2023/02/21 07:26:53;;;;;;;;;;;;;;;19.73;38.41;100500.14;106312;1283;62149;-80
2023/02/21 07:29:18;;;;;;;;;;;;;;;19.72;38.20;100495.89;106154;1282;62023;-80
2023/02/21 07:31:44;;;;;;;;;;;;;;;19.73;38.22;100495.84;106272;1282;62136;-80
2023/02/21 07:34:11;;;;;;;;;;;;;;;19.73;38.18;100491.18;106158;1282;62168;-79
2023/02/21 07:36:37;;;;;;;;;;;;;;;19.73;38.22;100492.09;106282;1282;62047;-80
2023/02/21 07:39:02;;;;;;;;;;;;;;;19.74;38.28;100484.55;106192;1282;60746;-80
2023/02/21 07:41:28;;;;;;;;;;;;;;;19.74;38.23;100479.71;106262;1283;60535;-80
2023/02/21 07:43:54;;;;;;;;;;;;;;;19.74;38.28;100482.23;106287;1282;62084;-80
2023/02/21 07:46:19;;;;;;;;;;;;;;;19.74;38.41;100484.90;106199;1283;61980;-80
2023/02/21 07:48:45;;;;;;;;;;;;;;;19.74;38.33;100479.35;106211;1287;61365;-80
2023/02/21 07:51:12;;;;;;;;;;;;;;;19.74;38.26;100480.95;106189;1283;62081;-80
2023/02/21 07:53:39;;;;;;;;;;;;;;;19.74;38.30;100477.05;106157;1282;62145;-80
2023/02/21 07:56:05;;;;;;;;;;;;;;;19.74;37.99;100479.20;106197;1282;62136;-80
2023/02/21 07:58:31;;;;;;;;;;;;;;;19.73;38.07;100474.23;106170;1282;62053;-80
2023/02/21 08:00:57;;;;;;;;;;;;;;;19.73;37.92;100465.70;106181;1285;61934;-81
2023/02/21 08:03:23;;;;;;;;;;;;;;;19.73;37.96;100467.83;106015;1288;62048;-80
2023/02/21 08:05:50;;;;;;;;;;;;;;;19.73;37.66;100459.77;106314;1282;61047;-80
2023/02/21 08:08:16;;;;;;;;;;;;;;;19.73;37.64;100457.83;106311;1283;62164;-80
2023/02/21 08:10:41;;;;;;;;;;;;;;;19.73;37.42;100456.95;106145;1283;60640;-80
2023/02/21 08:13:07;;;;;;;;;;;;;;;19.73;37.65;100457.27;106190;1283;61373;-80
2023/02/21 08:15:33;;;;;;;;;;;;;;;19.74;37.51;100459.36;106247;1282;62046;-80
2023/02/21 08:17:59;;;;;;;;;;;;;;;19.74;37.35;100449.89;106258;1283;60230;-80
2023/02/21 08:20:25;;;;;;;;;;;;;;;19.75;37.32;100446.80;106222;1283;62193;-81
2023/02/21 08:22:50;;;;;;;;;;;;;;;19.76;37.37;100446.16;106311;1285;60244;-80
2023/02/21 08:25:16;;;;;;;;;;;;;;;19.76;37.40;100439.73;106278;1285;62917;-80
2023/02/21 08:27:42;;;;;;;;;;;;;;;19.76;37.34;100437.92;106282;1283;62056;-81
2023/02/21 08:30:08;;;;;;;;;;;;;;;19.77;37.47;100432.15;106210;1282;62110;-81
2023/02/21 08:32:34;;;;;;;;;;;;;;;19.78;37.42;100433.36;106330;1281;62160;-82
2023/02/21 08:35:02;;;;;;;;;;;;;;;19.79;37.53;100434.05;106070;1284;62233;-81
2023/02/21 08:37:31;;;;;;;;;;;;;;;19.79;37.32;100432.08;106254;1281;76030;-80
2023/02/21 08:39:57;;;;;;;;;;;;;;;19.79;37.32;100429.38;106732;1282;60844;-80
2023/02/21 08:42:22;;;;;;;;;;;;;;;19.80;37.29;100421.79;106223;1283;62112;-80
2023/02/21 08:44:48;;;;;;;;;;;;;;;19.81;37.29;100418.19;106380;1285;62041;-80
2023/02/21 08:47:14;;;;;;;;;;;;;;;19.81;37.31;100415.31;106239;1282;62095;-80
2023/02/21 08:49:43;;;;;;;;;;;;;;;19.82;37.42;100416.48;106156;1282;62142;-80
2023/02/21 08:52:09;;;;;;;;;;;;;;;19.83;37.16;100414.64;106335;1282;61995;-80
2023/02/21 08:54:35;;;;;;;;;;;;;;;19.84;37.39;100410.98;106185;1287;62219;-80
2023/02/21 08:57:00;;;;;;;;;;;;;;;19.85;37.36;100414.72;106331;1283;62037;-80
2023/02/21 08:59:29;;;;;;;;;;;;;;;19.86;37.31;100411.23;106299;1283;62100;-80
2023/02/21 09:01:54;;;;;;;;;;;;;;;19.86;37.33;100413.14;106375;1283;62172;-80
2023/02/21 09:04:20;;;;;;;;;;;;;;;19.88;37.30;100408.95;106196;1283;62038;-80
2023/02/21 09:06:45;;;;;;;;;;;;;;;19.87;37.30;100409.50;106221;1287;62075;-80
2023/02/21 09:09:11;;;;;;;;;;;;;;;19.89;37.22;100410.11;106246;1283;61420;-81
2023/02/21 09:11:37;;;;;;;;;;;;;;;19.89;37.27;100405.66;106276;1282;61962;-80
2023/02/21 09:14:04;;;;;;;;;;;;;;;19.89;37.48;100401.50;106345;1282;61875;-80
2023/02/21 09:16:30;;;;;;;;;;;;;;;19.90;37.47;100401.84;106335;1282;73300;-80
2023/02/21 09:18:57;;;;;;;;;;;;;;;19.90;37.21;100402.86;106217;1283;62095;-80
2023/02/21 09:21:23;;;;;;;;;;;;;;;19.90;37.38;100405.71;106217;1282;61936;-80
2023/02/21 09:23:50;;;;;;;;;;;;;;;19.91;37.39;100402.31;106209;1282;62170;-80
2023/02/21 09:26:16;;;;;;;;;;;;;;;19.90;37.33;100403.04;106069;1283;61962;-80
2023/02/21 09:28:42;;;;;;;;;;;;;;;19.91;37.44;100400.13;106200;1283;60864;-80
2023/02/21 09:31:08;;;;;;;;;;;;;;;19.91;37.42;100402.98;106206;1283;62116;-80
2023/02/21 09:33:41;;;;;;;;;;;;;;;19.91;37.33;100395.84;106168;1283;62079;-80
2023/02/21 09:36:07;;;;;;;;;;;;;;;19.91;37.50;100393.11;106235;1282;73346;-80
2023/02/21 09:38:33;;;;;;;;;;;;;;;19.92;37.42;100387.55;106225;1286;75339;-80
2023/02/21 09:40:59;;;;;;;;;;;;;;;19.92;37.29;100388.81;106186;1282;62086;-80
2023/02/21 09:43:32;;;;;;;;;;;;;;;19.93;37.31;100388.73;106187;1283;62188;-80
2023/02/21 09:46:00;;;;;;;;;;;;;;;19.93;37.40;100387.15;106213;1283;74634;-80
2023/02/21 09:48:25;;;;;;;;;;;;;;;19.93;37.42;100389.08;106262;1283;77400;-81
2023/02/21 09:50:53;;;;;;;;;;;;;;;19.94;37.48;100379.77;106253;1287;62059;-80
2023/02/21 09:53:23;;;;;;;;;;;;;;;19.93;37.32;100375.52;106179;1282;62216;-80
2023/02/21 09:55:49;;;;;;;;;;;;;;;19.93;37.33;100374.77;106345;1281;73365;-80
2023/02/21 09:58:16;;;;;;;;;;;;;;;19.94;37.41;100369.38;106094;1288;60517;-81
2023/02/21 10:00:42;;;;;;;;;;;;;;;19.95;37.34;100368.83;106184;1287;62044;-80
2023/02/21 10:03:15;;;;;;;;;;;;;;;19.95;37.47;100362.55;106337;1282;62162;-80
2023/02/21 10:05:53;;;;;;;;;;;;;;;19.95;37.45;100362.89;106637;1282;73404;-80
2023/02/21 10:08:21;;;;;;;;;;;;;;;19.95;37.57;100362.89;106290;1283;75448;-81
2023/02/21 10:10:48;;;;;;;;;;;;;;;19.95;37.60;100357.89;106211;1283;62819;-80
2023/02/21 10:13:22;;;;;;;;;;;;;;;19.96;37.58;100349.79;106201;1288;62076;-81
2023/02/21 10:16:08;;;;;;;;;;;;;;;19.96;37.59;100344.41;106170;1287;72446;-81
2023/02/21 10:18:36;;;;;;;;;;;;;;;19.97;37.50;100342.23;106159;1283;75404;-80
2023/02/21 10:21:04;;;;;;;;;;;;;;;19.96;37.51;100328.70;106286;1282;62055;-80
2023/02/21 10:23:30;;;;;;;;;;;;;;;19.96;37.50;100321.55;106198;1283;61872;-81
2023/02/21 10:25:58;;;;;;;;;;;;;;;19.96;37.47;100319.04;106298;1286;62082;-81
2023/02/21 10:28:24;;;;;;;;;;;;;;;19.96;37.52;100318.16;106026;1282;74669;-81
2023/02/21 10:30:51;;;;;;;;;;;;;;;19.96;37.60;100303.90;106183;1287;62076;-81
2023/02/21 10:33:16;;;;;;;;;;;;;;;19.96;37.65;100305.31;106268;1283;62057;-80
2023/02/21 10:35:42;;;;;;;;;;;;;;;19.96;37.57;100307.46;106298;1283;62996;-80
2023/02/21 10:38:18;;;;;;;;;;;;;;;19.95;37.42;100302.31;106190;1288;62024;-80
2023/02/21 10:41:00;;;;;;;;;;;;;;;19.95;37.45;100297.69;106205;1288;62044;-81
2023/02/21 10:43:47;;;;;;;;;;;;;;;19.96;37.49;100287.11;106275;1283;61968;-81
2023/02/21 10:46:19;;;;;;;;;;;;;;;19.96;37.43;100284.80;106195;1288;72435;-81
2023/02/21 10:48:45;;;;;;;;;;;;;;;19.95;37.42;100278.41;106276;1283;76063;-80
2023/02/21 10:51:15;;;;;;;;;;;;;;;19.96;37.32;100272.84;106286;1284;62049;-80
2023/02/21 10:53:41;;;;;;;;;;;;;;;19.96;37.43;100273.38;106180;1288;60886;-80
2023/02/21 10:56:19;;;;;;;;;;;;;;;19.95;37.43;100270.02;106143;1283;62117;-80
2023/02/21 10:58:49;;;;;;;;;;;;;;;19.95;37.35;100264.66;106288;1285;75341;-80
2023/02/21 11:01:16;;;;;;;;;;;;;;;19.95;37.26;100262.74;106295;1283;61886;-80
2023/02/21 11:03:45;;;;;;;;;;;;;;;19.94;37.32;100257.75;106268;1283;62451;-81
2023/02/21 11:06:20;;;;;;;;;;;;;;;19.94;37.59;100257.74;106246;1282;73461;-80
2023/02/21 11:08:46;;;;;;;;;;;;;;;19.94;37.36;100250.43;106225;1282;75056;-80
2023/02/21 11:11:11;;;;;;;;;;;;;;;19.95;37.28;100246.45;106299;1283;62040;-80
2023/02/21 11:13:37;;;;;;;;;;;;;;;19.95;37.26;100244.27;106225;1287;60115;-80
2023/02/21 11:16:16;;;;;;;;;;;;;;;19.95;37.34;100238.59;106337;1283;62107;-80
2023/02/21 11:18:41;;;;;;;;;;;;;;;19.96;37.30;100233.90;106189;1283;75324;-80
2023/02/21 11:21:14;;;;;;;;;;;;;;;19.95;37.34;100234.63;106225;1283;61269;-80
2023/02/21 11:23:44;;;;;;;;;;;;;;;19.96;37.27;100231.73;106223;1283;61850;-80
2023/02/21 11:26:10;;;;;;;;;;;;;;;19.96;37.20;100224.73;106214;1286;73339;-80
2023/02/21 11:28:39;;;;;;;;;;;;;;;19.97;37.19;100222.02;106298;1283;62063;-80
2023/02/21 11:31:37;;;;;;;;;;;;;;;19.97;37.40;100221.10;106211;1283;62077;-80
2023/02/21 11:34:03;;;;;;;;;;;;;;;19.98;37.13;100211.58;105665;1292;62041;-80
2023/02/21 11:36:30;;;;;;;;;;;;;;;19.98;37.21;100219.47;105551;1289;62019;-80
2023/02/21 11:39:01;;;;;;;;;;;;;;;19.98;37.31;100216.04;105435;1294;77170;-80
2023/02/21 11:41:28;;;;;;;;;;;;;;;19.99;37.34;100212.24;105690;1289;60816;-80
2023/02/21 11:43:54;;;;;;;;;;;;;;;19.99;37.24;100209.34;105853;1292;61067;-80
2023/02/21 11:46:34;;;;;;;;;;;;;;;19.99;36.98;100205.04;105633;1289;62086;-80
2023/02/21 11:49:01;;;;;;;;;;;;;;;20.00;36.91;100197.48;105635;1290;75084;-80
2023/02/21 11:51:39;;;;;;;;;;;;;;;20.00;37.08;100202.64;105650;1288;62648;-81
2023/02/21 11:54:05;;;;;;;;;;;;;;;20.01;36.75;100197.25;105654;1289;62178;-81
2023/02/21 11:56:33;;;;;;;;;;;;;;;20.01;37.00;100185.45;105525;1290;62146;-81
2023/02/21 11:59:06;;;;;;;;;;;;;;;20.01;36.82;100184.38;105636;1288;74371;-81
2023/02/21 12:01:38;;;;;;;;;;;;;;;20.02;36.86;100180.23;105656;1288;62085;-81
2023/02/21 12:04:13;;;;;;;;;;;;;;;20.02;36.79;100175.19;105522;1292;61900;-81
2023/02/21 12:06:57;;;;;;;;;;;;;;;20.03;36.88;100166.73;105536;1294;71631;-80
2023/02/21 12:09:28;;;;;;;;;;;;;;;20.03;36.86;100162.98;105786;1284;75210;-80
2023/02/21 12:11:59;;;;;;;;;;;;;;;20.02;36.90;100157.10;106273;1282;60046;-80
2023/02/21 12:14:40;;;;;;;;;;;;;;;20.03;36.96;100162.39;106321;1281;62083;-81
2023/02/21 12:17:29;;;;;;;;;;;;;;;20.03;36.77;100151.48;106300;1282;72514;-80
2023/02/21 12:20:07;;;;;;;;;;;;;;;20.04;36.88;100154.84;106224;1284;76555;-80
2023/02/21 12:22:49;;;;;;;;;;;;;;;20.04;36.95;100143.39;106195;1282;62113;-80
2023/02/21 12:25:18;;;;;;;;;;;;;;;20.05;36.85;100151.21;106194;1283;61973;-80
2023/02/21 12:27:56;;;;;;;;;;;;;;;20.04;36.80;100149.27;106347;1284;72701;-80
2023/02/21 12:30:26;;;;;;;;;;;;;;;20.04;36.86;100151.05;106270;1284;75232;-80
2023/02/21 12:32:52;;;;;;;;;;;;;;;20.04;36.86;100147.66;106296;1285;61971;-80
2023/02/21 12:35:37;;;;;;;;;;;;;;;20.04;36.71;100143.91;106206;1285;62101;-81
2023/02/21 12:38:26;;;;;;;;;;;;;;;20.04;36.86;100145.86;106351;1283;71265;-81
2023/02/21 12:41:04;;;;;;;;;;;;;;;20.04;36.76;100142.33;105419;1290;75137;-80
2023/02/21 12:43:29;;;;;;;;;;;;;;;20.04;36.64;100142.30;105620;1289;62013;-80
2023/02/21 12:46:01;;;;;;;;;;;;;;;20.05;36.81;100141.69;105504;1289;62130;-80
2023/02/21 12:48:26;;;;;;;;;;;;;;;20.05;36.87;100140.63;105463;1288;72561;-80
2023/02/21 12:50:52;;;;;;;;;;;;;;;20.06;36.81;100137.92;105451;1289;61932;-80
2023/02/21 12:53:19;;;;;;;;;;;;;;;20.06;36.73;100133.80;105485;1288;62110;-80
2023/02/21 12:55:46;;;;;;;;;;;;;;;20.07;36.91;100133.02;105650;1288;62057;-80
2023/02/21 12:58:20;;;;;;;;;;;;;;;20.07;36.89;100130.86;105540;1289;62092;-80
2023/02/21 13:01:10;;;;;;;;;;;;;;;20.08;36.83;100130.83;105584;1293;76311;-80
2023/02/21 13:03:57;;;;;;;;;;;;;;;20.08;36.85;100129.52;105634;1291;62001;-80
2023/02/21 13:06:28;;;;;;;;;;;;;;;20.09;36.79;100128.20;105617;1288;62126;-80
2023/02/21 13:09:28;;;;;;;;;;;;;;;20.09;36.85;100133.02;105472;1289;72508;-80
2023/02/21 13:11:59;;;;;;;;;;;;;;;20.09;36.83;100133.16;105550;1288;75152;-80
2023/02/21 13:14:38;;;;;;;;;;;;;;;20.10;36.89;100134.55;105563;1288;62102;-80
2023/02/21 13:17:03;;;;;;;;;;;;;;;20.10;36.68;100132.59;105576;1290;62247;-80
2023/02/21 13:19:41;;;;;;;;;;;;;;;20.11;36.88;100129.67;106250;1283;62187;-80
2023/02/21 13:25:18;;;;;;;;;;;;;;;20.10;36.99;100137.54;106305;1282;62075;-80
2023/02/21 13:27:52;;;;;;;;;;;;;;;20.10;36.90;100133.08;106217;1283;62063;-80
2023/02/21 13:30:27;;;;;;;;;;;;;;;20.10;36.82;100124.84;106353;1282;72322;-80
2023/02/21 13:32:56;;;;;;;;;;;;;;;20.10;36.92;100130.23;106378;1282;75337;-80
2023/02/21 13:35:40;;;;;;;;;;;;;;;20.10;36.88;100128.63;106292;1282;61928;-80
2023/02/21 13:38:06;;;;;;;;;;;;;;;20.10;36.84;100128.63;106353;1282;62185;-80
2023/02/21 13:40:50;;;;;;;;;;;;;;;20.10;36.92;100125.03;106276;1283;62031;-80
2023/02/21 13:43:29;;;;;;;;;;;;;;;20.10;36.88;100131.46;106259;1282;75327;-80
2023/02/21 13:45:55;;;;;;;;;;;;;;;20.10;36.91;100135.39;106232;1282;62012;-80
2023/02/21 13:48:23;;;;;;;;;;;;;;;20.10;36.79;100137.42;106188;1287;62075;-80
2023/02/21 13:50:50;;;;;;;;;;;;;;;20.10;36.72;100137.77;106271;1285;71564;-80
2023/02/21 13:53:20;;;;;;;;;;;;;;;20.10;36.82;100138.45;106165;1283;76085;-80
2023/02/21 13:56:12;;;;;;;;;;;;;;;20.10;36.85;100144.52;106048;1283;61803;-80
2023/02/21 13:58:38;;;;;;;;;;;;;;;20.10;36.71;100138.12;106223;1281;62031;-80
2023/02/21 14:01:16;;;;;;;;;;;;;;;20.09;36.84;100141.20;106300;1282;62088;-80
2023/02/21 14:03:41;;;;;;;;;;;;;;;20.10;36.73;100140.81;106252;1285;76113;-80
2023/02/21 14:06:07;;;;;;;;;;;;;;;20.10;36.86;100140.77;106152;1282;62075;-80
2023/02/21 14:08:40;;;;;;;;;;;;;;;20.11;36.90;100141.09;106266;1283;62066;-80
2023/02/21 14:11:05;;;;;;;;;;;;;;;20.11;36.70;100143.41;106150;1282;72435;-80
2023/02/21 14:13:35;;;;;;;;;;;;;;;20.10;36.74;100135.92;106265;1283;62079;-80
2023/02/21 14:16:06;;;;;;;;;;;;;;;20.11;36.68;100146.27;106341;1282;61960;-80
2023/02/21 14:18:46;;;;;;;;;;;;;;;20.11;36.82;100145.36;106348;1282;61047;-81
2023/02/21 14:21:16;;;;;;;;;;;;;;;20.11;36.71;100135.54;106279;1282;72253;-80
2023/02/21 14:23:47;;;;;;;;;;;;;;;20.11;36.72;100137.13;106288;1282;76266;-80
2023/02/21 14:26:31;;;;;;;;;;;;;;;20.12;36.78;100128.48;106185;1283;62191;-80
2023/02/21 14:28:56;;;;;;;;;;;;;;;20.13;36.72;100129.48;106321;1282;61977;-80
2023/02/21 14:31:41;;;;;;;;;;;;;;;20.13;36.81;100129.66;106324;1285;62183;-80
2023/02/21 14:34:07;;;;;;;;;;;;;;;20.13;36.79;100124.29;106341;1282;76289;-80
2023/02/21 14:36:33;;;;;;;;;;;;;;;20.14;36.73;100125.70;106364;1281;62017;-80
2023/02/21 14:38:58;;;;;;;;;;;;;;;20.13;36.70;100124.09;106212;1282;62155;-80
2023/02/21 14:41:36;;;;;;;;;;;;;;;20.14;36.92;100123.35;106208;1283;60776;-80
2023/02/21 14:44:08;;;;;;;;;;;;;;;20.14;36.68;100124.59;106237;1283;74321;-80
2023/02/21 14:46:36;;;;;;;;;;;;;;;20.15;36.67;100123.28;106289;1283;62114;-80
2023/02/21 14:49:22;;;;;;;;;;;;;;;20.15;36.72;100122.58;106215;1282;62979;-80
2023/02/21 14:51:55;;;;;;;;;;;;;;;20.15;36.77;100121.98;106159;1282;72378;-81